Have a Safe July 4th! 

Flight Track Log - Related Links

Times and Time Zones

All times are in EST time to prevent confusion due to time zone crossing. See the EJA829P flight status page for this flight to view local times or setup timezone preferences in your user account.

Time Position Orientation Groundspeed Altitude Reporting Facility
EST Latitude Longitude Course Direction KTS MPH feet Rate Location/Type
Fri 12:08:18 PM 37.4833 -77.3333 230° Southwest 179 206 1,900  Level Potomac TRACON
Fri 12:09:19 PM 37.4500 -77.3833 230° Southwest 217 250 5,600 3,410 Climbing Potomac TRACON
Fri 12:10:37 PM 37.4242 -77.4931 254° West 242 278 9,800 3,397 Climbing Washington Center
Fri 12:11:35 PM 37.4100 -77.5842 259° West 256 295 13,300 3,328 Climbing Washington Center
Fri 12:12:36 PM 37.3939 -77.6806 258° West 274 315 16,400 2,678 Climbing Washington Center
Fri 12:13:36 PM 37.3775 -77.7794 258° West 287 330 18,700 1,835 Climbing Washington Center
Fri 12:14:37 PM 37.3589 -77.8858 258° West 302 348 20,100 1,686 Climbing Washington Center
Fri 12:15:37 PM 37.3378 -78.0028 257° West 330 380 22,100 2,050 Climbing Washington Center
Fri 12:16:37 PM 37.3189 -78.1094 257° West 336 387 24,200 1,576 Climbing Washington Center
Fri 12:17:35 PM 37.3064 -78.2003 260° West 320 368 25,200 1,373 Climbing Washington Center
Fri 12:18:35 PM 37.2872 -78.3094 258° West 315 362 26,900 1,537 Climbing Washington Center
Fri 12:19:36 PM 37.2639 -78.4156 255° West 315 362 28,300 1,230 Climbing Washington Center
Fri 12:20:37 PM 37.2406 -78.5189 254° West 315 362 29,400 1,377 Climbing Washington Center
Fri 12:21:38 PM 37.2172 -78.6275 255° West 303 349 31,100 1,714 Climbing Washington Center
Fri 12:22:36 PM 37.1961 -78.7103 252° West 278 320 32,800 1,475 Climbing Washington Center
Fri 12:23:36 PM 37.1772 -78.7956 254° West 265 305 34,000 595 Climbing Washington Center
Fri 12:24:37 PM 37.1561 -78.8883 254° West 260 299 34,000  Level Washington Center
Fri 12:25:35 PM 37.1242 -78.9808 247° West 274 315 34,000  Level Washington Center
Fri 12:26:36 PM 37.0639 -79.0458 221° Southwest 295 339 34,000  Level Washington Center
Fri 12:27:36 PM 36.9931 -79.1128 217° Southwest 308 354 34,000  Level Washington Center
Fri 12:28:36 PM 36.9222 -79.1772 216° Southwest 318 366 34,000  Level Washington Center
Fri 12:29:37 PM 36.8536 -79.2414 217° Southwest 318 366 34,000  Level Washington Center
Fri 12:30:37 PM 36.7764 -79.3106 216° Southwest 318 366 34,000  Level Washington Center
Fri 12:31:35 PM 36.7078 -79.3744 217° Southwest 318 366 34,000  Level Washington Center
Fri 12:32:35 PM 36.6367 -79.4383 216° Southwest 318 366 34,000  Level Washington Center
Fri 12:33:36 PM 36.5681 -79.5022 217° Southwest 318 366 34,000  Level Washington Center
Fri 12:34:37 PM 36.5033 -79.5611 216° Southwest 318 366 34,000  Level Washington Center
Fri 12:36:14 PM 36.3808 -79.6678 215° Southwest 323 372 34,000  Level Atlanta Center
Fri 12:37:14 PM 36.3003 -79.7442 217° Southwest 332 382 34,000  Level Atlanta Center
Fri 12:38:14 PM 36.2253 -79.8100 215° Southwest 332 382 34,000  Level Atlanta Center
Fri 12:39:14 PM 36.1544 -79.8753 217° Southwest 327 376 34,000  Level Atlanta Center
Fri 12:40:14 PM 36.0836 -79.9356 215° Southwest 327 376 34,000  Level Atlanta Center
Fri 12:41:14 PM 36.0142 -79.9828 209° Southwest 327 376 34,000  Level Atlanta Center
Fri 12:42:14 PM 35.9233 -80.0131 195° South 327 376 34,000  Level Atlanta Center
Fri 12:43:14 PM 35.8325 -80.0431 195° South 332 382 34,000  Level Atlanta Center
Fri 12:44:14 PM 35.7439 -80.0706 194° South 338 389 34,000  Level Atlanta Center
Fri 12:45:14 PM 35.6553 -80.1081 199° South 338 389 34,000  Level Atlanta Center
Fri 12:46:14 PM 35.5686 -80.1350 194° South 338 389 34,000  Level Atlanta Center
Fri 12:47:14 PM 35.4778 -80.1650 195° South 333 383 34,000  Level Atlanta Center
Fri 12:48:14 PM 35.3889 -80.1944 195° South 333 383 34,000  Level Atlanta Center
Fri 12:49:14 PM 35.2981 -80.2217 194° South 338 389 34,000  Level Atlanta Center
Fri 12:51:17 PM 35.0967 -80.2869 195° South 329 379 34,000  Level Jacksonville Center
Fri 12:52:17 PM 35.0011 -80.3153 194° South 343 395 34,000  Level Jacksonville Center
Fri 12:53:17 PM 34.9100 -80.3458 195° South 348 400 34,000  Level Jacksonville Center
Fri 12:54:17 PM 34.8189 -80.3764 195° South 348 400 34,000  Level Jacksonville Center
Fri 12:55:17 PM 34.7422 -80.4039 196° South 336 387 34,000  Level Jacksonville Center
Fri 12:56:17 PM 34.6531 -80.4292 193° South 336 387 34,000  Level Jacksonville Center
Fri 12:57:17 PM 34.5536 -80.4597 194° South 336 387 34,000  Level Jacksonville Center
Fri 12:58:17 PM 34.4686 -80.4875 195° South 331 381 34,000  Level Jacksonville Center
Fri 12:59:17 PM 34.3836 -80.5150 195° South 325 374 34,000  Level Jacksonville Center
Fri 01:00:17 PM 34.2986 -80.5425 195° South 320 368 34,000  Level Jacksonville Center
Fri 01:01:17 PM 34.2136 -80.5697 195° South 315 362 34,000  Level Jacksonville Center
Fri 01:02:17 PM 34.1283 -80.5947 194° South 315 362 34,000  Level Jacksonville Center
Fri 01:03:17 PM 34.0456 -80.6219 195° South 315 362 34,000  Level Jacksonville Center
Fri 01:04:17 PM 33.9603 -80.6467 194° South 315 362 34,000  Level Jacksonville Center
Fri 01:05:17 PM 33.8753 -80.6739 195° South 315 362 34,000  Level Jacksonville Center
Fri 01:06:17 PM 33.7903 -80.7011 195° South 320 368 34,000  Level Jacksonville Center
Fri 01:07:17 PM 33.7072 -80.7281 195° South 320 368 34,000  Level Jacksonville Center
Fri 01:08:17 PM 33.6200 -80.7525 193° South 320 368 34,000  Level Jacksonville Center
Fri 01:09:17 PM 33.5350 -80.7819 196° South 320 368 34,000  Level Jacksonville Center
Fri 01:10:17 PM 33.4478 -80.8067 193° South 320 368 34,000  Level Jacksonville Center
Fri 01:11:17 PM 33.3606 -80.8333 194° South 320 368 34,000  Level Jacksonville Center
Fri 01:12:17 PM 33.2733 -80.8628 196° South 320 368 34,000  Level Jacksonville Center
Fri 01:13:17 PM 33.1839 -80.8872 193° South 320 368 34,000  Level Jacksonville Center
Fri 01:14:17 PM 33.0947 -80.9164 195° South 325 374 34,000  Level Jacksonville Center
Fri 01:15:17 PM 33.0053 -80.9408 193° South 330 380 34,000  Level Jacksonville Center
Fri 01:16:17 PM 32.9117 -80.9700 195° South 335 386 34,000  Level Jacksonville Center
Fri 01:17:17 PM 32.8225 -80.9992 195° South 335 386 34,000  Level Jacksonville Center
Fri 01:18:17 PM 32.7331 -81.0256 194° South 335 386 34,000  Level Jacksonville Center
Fri 01:19:17 PM 32.6439 -81.0522 194° South 327 376 34,000  Level Jacksonville Center
Fri 01:20:17 PM 32.5564 -81.0786 194° South 327 376 34,000  Level Jacksonville Center
Fri 01:21:17 PM 32.4775 -81.1022 194° South 333 383 34,000  Level Jacksonville Center
Fri 01:22:17 PM 32.3756 -81.1339 195° South 347 399 34,000  Level Jacksonville Center
Fri 01:23:17 PM 32.2819 -81.1503 188° South 341 392 34,000  Level Jacksonville Center
Fri 01:24:17 PM 32.1836 -81.1472 178° South 353 406 34,000  Level Jacksonville Center
Fri 01:25:17 PM 32.0878 -81.1467 180° South 358 412 34,000  Level Jacksonville Center
Fri 01:26:17 PM 31.9875 -81.1461 180° South 358 412 34,000  Level Jacksonville Center
Fri 01:27:17 PM 31.8872 -81.1456 180° South 358 412 34,000  Level Jacksonville Center
Fri 01:28:17 PM 31.7933 -81.1450 180° South 358 412 34,000  Level Jacksonville Center
Fri 01:29:17 PM 31.7036 -81.1442 180° South 358 412 34,000  Level Jacksonville Center
Fri 01:30:17 PM 31.5928 -81.1414 179° South 358 412 34,000  Level Jacksonville Center
Fri 01:31:17 PM 31.4947 -81.1408 180° South 363 418 34,000  Level Jacksonville Center
Fri 01:32:17 PM 31.4050 -81.1400 180° South 363 418 34,000  Level Jacksonville Center
Fri 01:33:17 PM 31.2942 -81.1397 180° South 363 418 34,000  Level Jacksonville Center
Fri 01:34:17 PM 31.1939 -81.1392 180° South 363 418 34,000  Level Jacksonville Center
Fri 01:35:17 PM 31.0917 -81.1361 179° South 368 423 34,000  Level Jacksonville Center
Fri 01:36:17 PM 30.9894 -81.1356 180° South 368 423 34,000  Level Jacksonville Center
Fri 01:37:17 PM 30.8850 -81.1328 179° South 368 423 34,000  Level Jacksonville Center
Fri 01:38:17 PM 30.7825 -81.1297 179° South 368 423 34,000  Level Jacksonville Center
Fri 01:39:17 PM 30.6825 -81.1317 181° South 368 423 34,000  Level Jacksonville Center
Fri 01:40:17 PM 30.5800 -81.1286 179° South 368 423 34,000  Level Jacksonville Center
Fri 01:41:17 PM 30.4778 -81.1283 180° South 368 423 34,000  Level Jacksonville Center
Fri 01:42:17 PM 30.3753 -81.1253 179° South 368 423 34,000  Level Jacksonville Center
Fri 01:43:17 PM 30.2731 -81.1247 180° South 368 423 34,000  Level Jacksonville Center
Fri 01:44:17 PM 30.1728 -81.1242 180° South 363 418 34,000  Level Jacksonville Center
Fri 01:45:17 PM 30.0706 -81.1236 180° South 368 423 34,000  Level Jacksonville Center
Fri 01:46:17 PM 29.9703 -81.1206 178° South 363 418 34,000  Level Jacksonville Center
Fri 01:47:17 PM 29.8681 -81.1203 180° South 363 418 34,000  Level Jacksonville Center
Fri 01:48:17 PM 29.7656 -81.1197 180° South 363 418 34,000  Level Jacksonville Center
Fri 01:49:17 PM 29.6656 -81.1167 178° South 363 418 34,000  Level Jacksonville Center
Fri 01:50:17 PM 29.5589 -81.1186 181° South 363 418 34,000  Level Jacksonville Center
Fri 01:52:02 PM 29.3889 -81.1211 181° South 357 411 34,000  Level Miami Center
Fri 01:53:02 PM 29.2847 -81.1147 177° South 365 420 34,000  Level Miami Center
Fri 01:54:02 PM 29.1797 -81.0728 161° South 385 443 34,000  Level Miami Center
Fri 01:55:02 PM 29.0786 -81.0286 159° South 391 450 34,000  Level Miami Center
Fri 01:56:02 PM 28.9717 -80.9842 160° South 397 457 34,000  Level Miami Center
Fri 01:57:02 PM 28.8706 -80.9425 160° South 397 457 34,000  Level Miami Center
Fri 01:58:02 PM 28.7550 -80.8981 161° South 397 457 34,000  Level Miami Center
Fri 01:59:02 PM 28.6497 -80.8539 160° South 407 468 34,000  Level Miami Center
Fri 02:00:02 PM 28.5550 -80.8150 160° South 407 468 34,000  Level Miami Center
Fri 02:01:02 PM 28.4372 -80.7683 161° South 400 460 34,000  Level Miami Center
Fri 02:02:02 PM 28.3342 -80.7272 161° South 411 473 34,000  Level Miami Center
Fri 02:03:03 PM 28.2331 -80.6858 160° South 411 473 34,000  Level Miami Center
Fri 02:04:02 PM 28.1275 -80.6447 161° South 405 466 34,000  Level Miami Center
Fri 02:05:02 PM 28.0200 -80.6083 163° South 397 457 34,000  Level Miami Center
Fri 02:06:02 PM 27.9125 -80.5717 163° South 397 457 34,000 -200 Level Miami Center
Fri 02:07:02 PM 27.8050 -80.5331 162° South 397 457 33,600 -750 Descending Miami Center
Fri 02:08:02 PM 27.6953 -80.4967 164° South 397 457 32,500 -1,650 Descending Miami Center
Fri 02:09:02 PM 27.5814 -80.4508 160° South 408 470 30,300 -2,350 Descending Miami Center
Fri 02:10:02 PM 27.4678 -80.4053 160° South 425 489 27,800 -2,500 Descending Miami Center
Fri 02:11:02 PM 27.3561 -80.3597 160° South 433 498 25,300 -1,900 Descending Miami Center
Fri 02:12:02 PM 27.2383 -80.3142 161° South 428 493 24,000 -1,250 Descending Miami Center
Fri 02:13:02 PM 27.1350 -80.2714 160° South 409 471 22,800 -1,650 Descending Miami Center
Fri 02:14:02 PM 27.0336 -80.2311 161° South 398 458 20,700 -2,050 Descending Miami Center
Fri 02:15:02 PM 26.9342 -80.1908 160° South 398 458 18,700 -2,000 Descending Miami Center
Fri 02:16:02 PM 26.8453 -80.1533 159° South 359 413 16,700 -1,850 Descending Miami Center
Fri 02:17:02 PM 26.7478 -80.1181 162° South 359 413 15,000 -1,050 Descending Miami Center
Fri 02:18:02 PM 26.6567 -80.0853 162° South 359 413 14,600 -796 Descending Miami Center
Fri 02:18:40 PM 26.5964 -80.0767 173° South 333 383 13,700 -1,300 Descending Miami Center
Fri 02:19:02 PM 26.5653 -80.0689 167° South 345 397 13,300 -512 Descending Miami Center
Fri 02:20:02 PM 26.4758 -80.0525 171° South 338 389 13,000 -237 Descending Miami Center
Fri 02:20:18 PM 26.4508 -80.0497 174° South 329 379 13,000 -295 Level Miami Center
Fri 02:21:03 PM 26.3842 -80.0361 170° South 330 380 12,700 -677 Descending Miami Center
Fri 02:21:20 PM 26.3569 -80.0356 179° South 328 377 12,300 -1,220 Descending Miami Center
Fri 02:22:02 PM 26.2947 -80.0222 169° South 330 380 11,500 -1,180 Descending Miami Center
Fri 02:22:21 PM 26.2633 -80.0192 175° South 326 375 11,100 -1,200 Descending Miami Center
Fri 02:23:02 PM 26.2172 -80.0247 186° South 325 374 10,300 -1,200 Descending Miami Center
Fri 02:23:16 PM 26.1858 -80.0356 197° South 317 365 10,000 -300 Descending Miami Center
Fri 02:24:02 PM 26.1292 -80.0503 193° South 317 365 10,000  Level Miami Center
Fri 02:24:23 PM 26.0869 -80.0631 195° South 324 373 10,000 -100 Level Miami Center
Fri 02:25:02 PM 26.0472 -80.0736 193° South 316 364 9,900 -441 Descending Miami Center
Fri 02:25:31 PM 25.9989 -80.0861 193° South 284 327 9,500 -700 Descending Miami Center
Fri 02:26:02 PM 25.9694 -80.0922 191° South 304 350 9,200 -545 Descending Miami Center
Fri 02:26:26 PM 25.9272 -80.1072 198° South 285 328 9,000 -200 Descending Miami Center
Fri 02:27:02 PM 25.8936 -80.1133 189° South 292 336 9,000  Level Miami Center
Fri 02:27:27 PM 25.8517 -80.1283 198° South 288 331 9,000  Level Miami Center
Fri 02:28:02 PM 25.8158 -80.1389 195° South 287 330 9,000  Level Miami Center
Fri 02:28:29 PM 25.7697 -80.1514 194° South 289 333 9,000  Level Miami Center
Fri 02:28:45 PM 25.7506 -80.1578 197° South 288 331 9,000 -273 Level Miami Center
Fri 02:28:51 PM 25.7444 -80.1600 198° South 288 331 8,900 -727 Descending Miami Center
Fri 02:29:51 PM 25.6628 -80.1622 181° South 286 329 8,200 -1,488 Descending Miami Center
Fri 02:30:52 PM 25.5894 -80.1719 187° South 277 319 5,900 -2,508 Descending Miami Center
Fri 02:31:53 PM 25.5136 -80.1997 198° South 262 302 3,100 -2,132 Descending Miami Center
Fri 02:32:53 PM 25.4547 -80.2256 202° Southwest 241 277 1,600 -1,500 Descending Miami Center
Fri 02:34:00 PM 25.3572 -80.2627 138° Southeast  Level Estimated
Fri 02:41:00 PM 25.3167 -80.2667 138° Southeast  Level FlightAware Approximate
Fri 02:42:00 PM 25.3254 -80.2748 138° Southeast  Level Estimated
Fri 02:43:00 PM 25.3254 -80.2748 138° Southeast  Level Estimated

Login

Don't have an account? Register now (free) for customized features, flight alerts, and more!